createdAt,value
2023-03-18T00:00:21.475Z,9.19
2023-03-18T00:03:07.652Z,9.16
2023-03-18T00:05:54.207Z,9.15
2023-03-18T00:08:40.977Z,9.12
2023-03-18T00:11:28.386Z,9.10
2023-03-18T00:14:14.559Z,9.06
2023-03-18T00:17:01.114Z,9.02
2023-03-18T00:19:47.155Z,9.01
2023-03-18T00:22:33.619Z,9.01
2023-03-18T00:25:19.639Z,8.98
2023-03-18T00:28:07.347Z,8.97
2023-03-18T00:30:53.609Z,8.96
2023-03-18T00:33:40.195Z,8.96
2023-03-18T00:36:26.429Z,8.95
2023-03-18T00:39:14.350Z,8.94
2023-03-18T00:42:01.952Z,8.92
2023-03-18T00:44:49.781Z,8.90
2023-03-18T00:47:36.125Z,8.91
2023-03-18T00:50:22.562Z,8.88
2023-03-18T00:53:08.688Z,8.88
2023-03-18T00:55:55.309Z,8.86
2023-03-18T00:58:41.758Z,8.84
2023-03-18T01:01:29.256Z,8.83
2023-03-18T01:04:18.646Z,8.83
2023-03-18T01:07:05.512Z,8.81
2023-03-18T01:09:51.657Z,8.83
2023-03-18T01:12:39.601Z,8.84
2023-03-18T01:15:25.801Z,8.86
2023-03-18T01:18:13.311Z,8.86
2023-03-18T01:20:59.145Z,8.89
2023-03-18T01:23:47.969Z,8.93
2023-03-18T01:26:33.962Z,8.93
2023-03-18T01:29:20.921Z,8.93
2023-03-18T01:32:07.363Z,8.92
2023-03-18T01:34:55.767Z,8.91
2023-03-18T01:37:42.028Z,8.95
2023-03-18T01:40:31.958Z,9.02
2023-03-18T01:43:20.660Z,9.12
2023-03-18T01:46:22.088Z,9.13
2023-03-18T01:49:10.299Z,9.17
2023-03-18T01:51:58.740Z,9.25
2023-03-18T01:54:45.964Z,9.30
2023-03-18T01:57:32.931Z,9.32
2023-03-18T02:00:19.966Z,9.35
2023-03-18T02:03:06.177Z,9.37
2023-03-18T02:05:53.760Z,9.39
2023-03-18T02:08:41.802Z,9.38
2023-03-18T02:11:28.679Z,9.40
2023-03-18T02:14:17.804Z,9.41
2023-03-18T02:17:04.247Z,9.37
2023-03-18T02:19:55.990Z,9.38
2023-03-18T02:22:43.359Z,9.39
2023-03-18T02:25:34.925Z,9.38
2023-03-18T02:28:23.075Z,9.40
2023-03-18T02:31:10.465Z,9.41
2023-03-18T02:33:56.775Z,9.42
2023-03-18T02:36:42.709Z,9.39
2023-03-18T02:39:31.033Z,9.38
2023-03-18T02:42:27.749Z,9.37
2023-03-18T02:45:18.216Z,9.39
2023-03-18T02:48:20.835Z,9.36
2023-03-18T02:51:07.291Z,9.33
2023-03-18T02:53:53.827Z,9.32
2023-03-18T02:56:40.414Z,9.30
2023-03-18T02:59:26.709Z,9.32
2023-03-18T03:02:14.641Z,9.34
2023-03-18T03:05:00.832Z,9.36
2023-03-18T03:07:47.557Z,9.37
2023-03-18T03:10:34.073Z,9.40
2023-03-18T03:13:20.719Z,9.43
2023-03-18T03:16:08.076Z,9.42
2023-03-18T03:18:55.464Z,9.44
2023-03-18T03:21:42.318Z,9.44
2023-03-18T03:24:28.502Z,9.44
2023-03-18T03:27:14.174Z,9.46
2023-03-18T03:30:00.172Z,9.44
2023-03-18T03:32:46.336Z,9.44
2023-03-18T03:35:34.187Z,9.47
2023-03-18T03:38:20.572Z,9.49
2023-03-18T03:41:08.750Z,9.51
2023-03-18T03:43:54.898Z,9.50
2023-03-18T03:46:41.211Z,9.48
2023-03-18T03:49:27.350Z,9.44
2023-03-18T03:52:14.683Z,9.42
2023-03-18T03:55:05.265Z,9.43
2023-03-18T03:57:52.151Z,9.45
2023-03-18T04:00:38.279Z,9.45
2023-03-18T04:03:25.545Z,9.42
2023-03-18T04:06:12.070Z,9.41
2023-03-18T04:09:06.343Z,9.36
2023-03-18T04:11:52.538Z,9.35
2023-03-18T04:14:38.818Z,9.36
2023-03-18T04:17:24.630Z,9.38
2023-03-18T04:20:11.617Z,9.39
2023-03-18T04:22:58.547Z,9.42
2023-03-18T04:25:46.062Z,9.43
2023-03-18T04:28:34.047Z,9.43
2023-03-18T04:31:21.005Z,9.42
2023-03-18T04:34:06.889Z,9.45
2023-03-18T04:36:53.063Z,9.46
2023-03-18T04:39:39.528Z,9.49
2023-03-18T04:42:30.718Z,9.47
2023-03-18T04:45:17.095Z,9.48
2023-03-18T04:48:02.870Z,9.44
2023-03-18T04:50:52.203Z,9.44
2023-03-18T04:53:43.628Z,9.44
2023-03-18T04:56:31.259Z,9.37
2023-03-18T04:59:19.571Z,9.37
2023-03-18T05:02:06.533Z,9.35
2023-03-18T05:04:53.795Z,9.36
2023-03-18T05:07:40.222Z,9.35
2023-03-18T05:10:30.678Z,9.31
2023-03-18T05:13:17.473Z,9.31
2023-03-18T05:16:06.571Z,9.26
2023-03-18T05:18:53.153Z,9.17
2023-03-18T05:21:39.412Z,9.18
2023-03-18T05:24:25.573Z,9.13
2023-03-18T05:27:12.095Z,9.11
2023-03-18T05:30:01.218Z,9.03
2023-03-18T05:32:59.643Z,9.02
2023-03-18T05:35:59.746Z,9.00
2023-03-18T05:38:51.665Z,8.94
2023-03-18T05:41:38.602Z,8.85
2023-03-18T05:44:29.392Z,8.85
2023-03-18T05:47:19.142Z,8.79
2023-03-18T05:50:20.064Z,8.81
2023-03-18T05:53:06.464Z,8.75
2023-03-18T05:55:57.707Z,8.66
2023-03-18T05:58:45.817Z,8.62
2023-03-18T06:01:41.551Z,8.56
2023-03-18T06:04:27.735Z,8.52
2023-03-18T06:07:15.171Z,8.52
2023-03-18T06:10:01.385Z,8.50
2023-03-18T06:12:47.647Z,8.52
2023-03-18T06:15:35.827Z,8.62
2023-03-18T06:18:21.684Z,8.63
2023-03-18T06:21:09.769Z,8.66
2023-03-18T06:23:57.540Z,8.70
2023-03-18T06:26:44.616Z,8.67
2023-03-18T06:29:31.550Z,8.72
2023-03-18T06:32:24.488Z,8.78
2023-03-18T06:35:11.644Z,8.79
2023-03-18T06:37:58.510Z,8.83
2023-03-18T06:40:46.355Z,8.86
2023-03-18T06:43:33.202Z,8.91
2023-03-18T06:46:20.245Z,8.98
2023-03-18T06:49:06.593Z,8.98
2023-03-18T06:51:56.871Z,9.00
2023-03-18T06:54:43.253Z,9.01
2023-03-18T06:57:30.627Z,9.07
2023-03-18T07:00:17.666Z,9.15
2023-03-18T07:03:04.879Z,9.20
2023-03-18T07:05:51.189Z,9.28
2023-03-18T07:08:37.818Z,9.36
2023-03-18T07:11:25.341Z,9.41
2023-03-18T07:14:14.440Z,9.46
2023-03-18T07:17:02.765Z,9.57
2023-03-18T07:19:48.804Z,9.64
2023-03-18T07:22:35.094Z,9.73
2023-03-18T07:25:22.841Z,9.85
2023-03-18T07:28:09.960Z,9.98
2023-03-18T07:30:57.894Z,10.16
2023-03-18T07:33:43.951Z,10.25
2023-03-18T07:36:29.938Z,10.35
2023-03-18T07:39:16.259Z,10.46
2023-03-18T07:42:02.742Z,10.56
2023-03-18T07:44:49.491Z,10.61
2023-03-18T07:47:37.075Z,10.70
2023-03-18T07:50:23.109Z,10.80
2023-03-18T07:53:09.243Z,10.92
2023-03-18T07:55:55.700Z,11.04
2023-03-18T07:58:41.932Z,11.19
2023-03-18T08:01:28.826Z,11.31
2023-03-18T08:04:16.445Z,11.44
2023-03-18T08:07:03.160Z,11.54
2023-03-18T08:09:50.505Z,11.66
2023-03-18T08:12:51.680Z,11.74
2023-03-18T08:15:39.055Z,11.82
2023-03-18T08:18:24.868Z,11.92
2023-03-18T08:21:12.179Z,12.01
2023-03-18T08:23:58.199Z,12.10
2023-03-18T08:26:44.345Z,12.16
2023-03-18T08:29:30.368Z,12.28
2023-03-18T08:32:16.658Z,12.38
2023-03-18T08:35:02.761Z,12.47
2023-03-18T08:37:51.102Z,12.59
2023-03-18T08:40:37.327Z,12.70
2023-03-18T08:43:23.204Z,12.80
2023-03-18T08:46:09.490Z,12.88
2023-03-18T08:48:55.486Z,12.99
2023-03-18T08:51:41.898Z,13.11
2023-03-18T08:54:30.058Z,13.38
2023-03-18T08:57:15.988Z,13.54
2023-03-18T09:00:01.842Z,13.83
2023-03-18T09:02:48.463Z,14.16
2023-03-18T09:05:35.002Z,14.43
2023-03-18T09:08:21.960Z,14.65
2023-03-18T09:11:09.721Z,14.81
2023-03-18T09:13:55.787Z,15.00
2023-03-18T09:16:41.634Z,15.13
2023-03-18T09:19:27.553Z,15.46
2023-03-18T09:22:13.402Z,15.70
2023-03-18T09:24:59.444Z,16.07
2023-03-18T09:27:47.551Z,16.29
2023-03-18T09:30:33.736Z,16.46
2023-03-18T09:33:20.741Z,16.61
2023-03-18T09:36:07.181Z,16.79
2023-03-18T09:38:53.201Z,17.09
2023-03-18T09:41:42.668Z,17.23
2023-03-18T09:44:30.648Z,17.52
2023-03-18T09:47:21.964Z,18.03
2023-03-18T09:50:12.932Z,18.19
2023-03-18T09:53:02.137Z,18.19
2023-03-18T09:55:49.009Z,18.20
2023-03-18T09:58:36.009Z,18.22
2023-03-18T10:01:24.293Z,18.16
2023-03-18T10:04:11.953Z,18.34
2023-03-18T10:06:58.566Z,18.39
2023-03-18T10:09:45.906Z,18.32
2023-03-18T10:12:32.683Z,18.28
2023-03-18T10:15:18.854Z,18.20
2023-03-18T10:18:06.627Z,17.94
2023-03-18T10:20:53.702Z,17.62
2023-03-18T10:23:43.630Z,17.24
2023-03-18T10:26:32.293Z,17.15
2023-03-18T10:29:33.227Z,16.89
2023-03-18T10:32:22.632Z,16.85
2023-03-18T10:35:15.612Z,16.74
2023-03-18T10:38:04.504Z,16.58
2023-03-18T10:40:50.403Z,16.51
2023-03-18T10:43:36.265Z,16.37
2023-03-18T10:46:22.786Z,16.22
2023-03-18T10:49:10.541Z,16.11
2023-03-18T10:51:58.929Z,15.91
2023-03-18T10:54:46.627Z,15.79
2023-03-18T10:57:33.317Z,15.70
2023-03-18T11:00:26.372Z,15.68
2023-03-18T11:03:18.383Z,15.55
2023-03-18T11:06:05.675Z,15.51
2023-03-18T11:09:00.895Z,15.46
2023-03-18T11:11:48.852Z,15.47
2023-03-18T11:14:38.305Z,15.48
2023-03-18T11:17:27.294Z,15.58
2023-03-18T11:20:20.873Z,15.70
2023-03-18T11:23:12.817Z,15.73
2023-03-18T11:26:03.515Z,15.84
2023-03-18T11:28:49.572Z,15.86
2023-03-18T11:31:36.698Z,15.85
2023-03-18T11:34:23.080Z,15.86
2023-03-18T11:37:11.767Z,15.87
2023-03-18T11:40:07.406Z,15.91
2023-03-18T11:42:58.521Z,15.79
2023-03-18T11:45:45.311Z,15.93
2023-03-18T11:48:32.461Z,15.85
2023-03-18T11:51:28.569Z,16.02
2023-03-18T11:54:24.759Z,15.96
2023-03-18T11:57:12.294Z,15.97
2023-03-18T12:00:01.930Z,16.11
2023-03-18T12:03:01.546Z,16.35
2023-03-18T12:05:52.010Z,16.46
2023-03-18T12:08:43.404Z,16.41
2023-03-18T12:11:34.405Z,16.53
2023-03-18T12:14:21.315Z,16.85
2023-03-18T12:17:13.084Z,16.98
2023-03-18T12:20:09.950Z,17.30
2023-03-18T12:23:03.264Z,17.52
2023-03-18T12:25:58.136Z,17.83
2023-03-18T12:28:55.173Z,17.68
2023-03-18T12:31:50.226Z,18.02
2023-03-18T12:34:42.607Z,18.02
2023-03-18T12:37:32.094Z,18.10
2023-03-18T12:40:20.557Z,17.93
2023-03-18T12:43:12.747Z,17.90
2023-03-18T12:46:02.496Z,17.76
2023-03-18T12:48:51.444Z,18.11
2023-03-18T12:51:41.705Z,18.31
2023-03-18T12:54:28.641Z,18.65
2023-03-18T12:57:15.563Z,18.98
2023-03-18T13:00:02.896Z,19.15
2023-03-18T13:02:50.164Z,19.41
2023-03-18T13:05:40.598Z,19.51
2023-03-18T13:08:37.538Z,19.71
2023-03-18T13:11:30.158Z,19.70
2023-03-18T13:14:18.636Z,19.77
2023-03-18T13:17:05.020Z,19.87
2023-03-18T13:19:51.234Z,19.88
2023-03-18T13:22:47.671Z,19.79
2023-03-18T13:25:37.201Z,19.78
2023-03-18T13:28:43.781Z,19.80
2023-03-18T13:31:32.848Z,19.82
2023-03-18T13:34:26.564Z,19.82
2023-03-18T13:37:14.575Z,19.57
2023-03-18T13:40:05.677Z,19.51
2023-03-18T13:42:53.018Z,19.36
2023-03-18T13:45:39.446Z,19.29
2023-03-18T13:48:28.738Z,19.17
2023-03-18T13:51:16.222Z,19.25
2023-03-18T13:54:04.991Z,19.23
2023-03-18T13:56:52.839Z,19.14
2023-03-18T13:59:46.911Z,19.01
2023-03-18T14:02:43.531Z,18.85
2023-03-18T14:05:37.172Z,18.76
2023-03-18T14:08:37.032Z,18.68
2023-03-18T14:11:51.139Z,18.58
2023-03-18T14:15:05.837Z,18.55
2023-03-18T14:17:56.936Z,18.39
2023-03-18T14:20:43.510Z,18.24
2023-03-18T14:23:30.380Z,18.17
2023-03-18T14:26:20.449Z,18.14
2023-03-18T14:29:16.789Z,18.03
2023-03-18T14:32:08.299Z,17.96
2023-03-18T14:34:56.433Z,17.97
2023-03-18T14:37:54.687Z,17.89
2023-03-18T14:40:41.699Z,17.82
2023-03-18T14:43:29.929Z,17.75
2023-03-18T14:46:17.683Z,17.65
2023-03-18T14:49:04.701Z,17.60
2023-03-18T14:51:52.148Z,17.53
2023-03-18T14:54:39.380Z,17.43
2023-03-18T14:57:25.736Z,17.38
2023-03-18T15:00:15.098Z,17.33
2023-03-18T15:03:01.523Z,17.28
2023-03-18T15:05:47.958Z,17.18
2023-03-18T15:08:47.449Z,17.14
2023-03-18T15:11:39.526Z,17.06
2023-03-18T15:14:26.866Z,17.06
2023-03-18T15:17:14.986Z,17.05
2023-03-18T15:20:01.128Z,17.00
2023-03-18T15:22:46.903Z,16.96
2023-03-18T15:25:34.796Z,16.81
2023-03-18T15:28:21.447Z,16.84
2023-03-18T15:31:07.857Z,16.74
2023-03-18T15:34:04.678Z,16.70
2023-03-18T15:36:53.866Z,16.70
2023-03-18T15:39:40.896Z,16.67
2023-03-18T15:42:28.283Z,16.64
2023-03-18T15:45:16.247Z,16.64
2023-03-18T15:48:05.625Z,16.55
2023-03-18T15:50:56.141Z,16.49
2023-03-18T15:53:43.690Z,16.43
2023-03-18T15:56:31.174Z,16.43
2023-03-18T15:59:20.512Z,16.39
2023-03-18T16:02:07.609Z,16.29
2023-03-18T16:04:53.857Z,16.26
2023-03-18T16:07:40.583Z,16.22
2023-03-18T16:10:26.721Z,16.15
2023-03-18T16:13:15.722Z,16.10
2023-03-18T16:16:03.598Z,16.04
2023-03-18T16:18:49.454Z,16.00
2023-03-18T16:21:35.523Z,15.97
2023-03-18T16:24:21.790Z,15.90
2023-03-18T16:27:08.340Z,15.85
2023-03-18T16:29:55.340Z,15.81
2023-03-18T16:32:42.864Z,15.75
2023-03-18T16:35:32.502Z,15.66
2023-03-18T16:38:19.569Z,15.66
2023-03-18T16:41:05.658Z,15.61
2023-03-18T16:43:52.585Z,15.58
2023-03-18T16:46:38.563Z,15.50
2023-03-18T16:49:26.976Z,15.39
2023-03-18T16:52:13.349Z,15.28
2023-03-18T16:55:00.573Z,15.15
2023-03-18T16:57:48.072Z,15.00
2023-03-18T17:00:34.059Z,14.90
2023-03-18T17:03:20.137Z,14.80
2023-03-18T17:06:08.771Z,14.64
2023-03-18T17:08:54.574Z,14.50
2023-03-18T17:11:40.772Z,14.31
2023-03-18T17:14:29.474Z,14.18
2023-03-18T17:17:17.565Z,14.03
2023-03-18T17:20:03.888Z,13.84
2023-03-18T17:22:51.100Z,13.63
2023-03-18T17:25:37.493Z,13.49
2023-03-18T17:28:30.977Z,13.35
2023-03-18T17:31:17.521Z,13.15
2023-03-18T17:34:03.508Z,13.00
2023-03-18T17:36:49.571Z,12.84
2023-03-18T17:39:40.428Z,12.70
2023-03-18T17:42:29.060Z,12.53
2023-03-18T17:45:20.135Z,12.34
2023-03-18T17:48:13.948Z,12.22
2023-03-18T17:51:00.182Z,12.06
2023-03-18T17:53:47.777Z,11.88
2023-03-18T17:56:36.056Z,11.80
2023-03-18T17:59:22.171Z,11.64
2023-03-18T18:02:10.389Z,11.50
2023-03-18T18:04:56.591Z,11.38
2023-03-18T18:07:43.172Z,11.29
2023-03-18T18:10:29.398Z,11.18
2023-03-18T18:13:17.658Z,11.09
2023-03-18T18:16:03.934Z,10.95
2023-03-18T18:18:50.321Z,10.87
2023-03-18T18:21:36.388Z,10.77
2023-03-18T18:24:23.127Z,10.67
2023-03-18T18:27:10.095Z,10.56
2023-03-18T18:29:58.108Z,10.48
2023-03-18T18:32:44.782Z,10.41
2023-03-18T18:35:30.950Z,10.31
2023-03-18T18:38:16.807Z,10.22
2023-03-18T18:41:02.729Z,10.13
2023-03-18T18:43:48.883Z,10.04
2023-03-18T18:46:36.386Z,9.97
2023-03-18T18:49:23.050Z,9.90
2023-03-18T18:52:10.293Z,9.82
2023-03-18T18:54:56.620Z,9.76
2023-03-18T18:57:42.685Z,9.68
2023-03-18T19:00:28.654Z,9.62
2023-03-18T19:03:17.655Z,9.52
2023-03-18T19:06:04.853Z,9.51
2023-03-18T19:08:50.948Z,9.50
2023-03-18T19:11:37.152Z,9.48
2023-03-18T19:14:25.295Z,9.45
2023-03-18T19:17:13.481Z,9.47
2023-03-18T19:20:03.747Z,9.49
2023-03-18T19:22:50.578Z,9.57
2023-03-18T19:25:36.401Z,9.62
2023-03-18T19:28:31.578Z,9.65
2023-03-18T19:31:18.786Z,9.71
2023-03-18T19:34:07.318Z,9.74
2023-03-18T19:36:55.872Z,9.79
2023-03-18T19:39:42.023Z,9.85
2023-03-18T19:42:28.161Z,9.92
2023-03-18T19:45:14.442Z,9.93
2023-03-18T19:48:00.859Z,9.95
2023-03-18T19:50:46.902Z,9.98
2023-03-18T19:53:34.826Z,9.98
2023-03-18T19:56:23.421Z,9.97
2023-03-18T19:59:09.691Z,9.98
2023-03-18T20:01:55.879Z,9.99
2023-03-18T20:04:45.198Z,9.98
2023-03-18T20:07:33.618Z,9.96
2023-03-18T20:10:21.136Z,9.96
2023-03-18T20:13:07.328Z,9.94
2023-03-18T20:15:53.153Z,9.94
2023-03-18T20:18:39.254Z,9.94
2023-03-18T20:21:26.739Z,9.92
2023-03-18T20:24:13.860Z,9.87
2023-03-18T20:27:01.251Z,9.87
2023-03-18T20:29:49.900Z,9.84
2023-03-18T20:32:35.952Z,9.85
2023-03-18T20:35:22.118Z,9.84
2023-03-18T20:38:12.607Z,9.84
2023-03-18T20:40:58.584Z,9.81
2023-03-18T20:43:50.208Z,9.78
2023-03-18T20:46:36.799Z,9.77
2023-03-18T20:49:22.942Z,9.75
2023-03-18T20:52:12.144Z,9.78
2023-03-18T20:55:01.188Z,9.74
2023-03-18T20:57:47.387Z,9.76
2023-03-18T21:00:35.167Z,9.77
2023-03-18T21:03:22.448Z,9.75
2023-03-18T21:06:11.681Z,9.73
2023-03-18T21:09:00.829Z,9.72
2023-03-18T21:11:49.261Z,9.72
2023-03-18T21:14:35.350Z,9.66
2023-03-18T21:17:23.743Z,9.66
2023-03-18T21:20:21.735Z,9.67
2023-03-18T21:23:12.227Z,9.67
2023-03-18T21:25:58.112Z,9.67
2023-03-18T21:28:43.863Z,9.67
2023-03-18T21:31:33.305Z,9.68
2023-03-18T21:34:21.039Z,9.68
2023-03-18T21:37:10.977Z,9.69
2023-03-18T21:39:56.708Z,9.71
2023-03-18T21:42:43.681Z,9.69
2023-03-18T21:45:30.422Z,9.65
2023-03-18T21:48:17.099Z,9.63
2023-03-18T21:51:04.910Z,9.63
2023-03-18T21:53:51.078Z,9.65
2023-03-18T21:56:37.684Z,9.65
2023-03-18T21:59:23.731Z,9.66
2023-03-18T22:02:14.493Z,9.63
2023-03-18T22:05:04.358Z,9.62
2023-03-18T22:07:51.643Z,9.62
2023-03-18T22:10:37.372Z,9.56
2023-03-18T22:13:23.773Z,9.58
2023-03-18T22:16:11.449Z,9.57
2023-03-18T22:18:57.539Z,9.56
2023-03-18T22:21:46.888Z,9.52
2023-03-18T22:24:37.338Z,9.54
2023-03-18T22:27:25.365Z,9.53
2023-03-18T22:30:15.652Z,9.50
2023-03-18T22:33:04.477Z,9.54
2023-03-18T22:35:50.478Z,9.54
2023-03-18T22:38:36.766Z,9.50
2023-03-18T22:41:29.252Z,9.46
2023-03-18T22:44:15.992Z,9.45
2023-03-18T22:47:05.762Z,9.42
2023-03-18T22:49:51.958Z,9.35
2023-03-18T22:52:37.937Z,9.37
2023-03-18T22:55:24.208Z,9.35
2023-03-18T22:58:14.474Z,9.36
2023-03-18T23:01:03.377Z,9.32
2023-03-18T23:03:49.403Z,9.32
2023-03-18T23:06:35.753Z,9.36
2023-03-18T23:09:24.264Z,9.35
2023-03-18T23:12:10.587Z,9.35
2023-03-18T23:14:58.014Z,9.31
2023-03-18T23:17:44.081Z,9.32
2023-03-18T23:20:30.124Z,9.28
2023-03-18T23:23:16.667Z,9.27
2023-03-18T23:26:05.298Z,9.23
2023-03-18T23:28:51.672Z,9.21
2023-03-18T23:31:38.928Z,9.19
2023-03-18T23:34:25.624Z,9.16
2023-03-18T23:37:12.289Z,9.13
2023-03-18T23:39:58.363Z,9.11
2023-03-18T23:42:44.490Z,9.06
2023-03-18T23:45:31.784Z,9.01
2023-03-18T23:48:22.422Z,8.96
2023-03-18T23:51:08.389Z,8.92
2023-03-18T23:53:54.327Z,8.85
2023-03-18T23:56:40.299Z,8.80
2023-03-18T23:59:26.496Z,8.75
